Vista Casco antiguo Xert more information Vista Casco antiguo Xert


Thunder radar more information blitzortung!


Rain radar  rain snow radar


Visita nuestra red de sitios de meteo:

Template documentation
and downloads

El Tiempo en XertWeb Principal

Meteotemplate: El tiempo en XertPlantilla Meteotemplate

Dashboard34: El tiempo en XertPlantilla V34

GraphWeather: El tiempo en XertPlantilla GraphWeather



No se requiere una conciencia particular del clima.    No hay advertencias meteorologicas.

Select another period ( hide this area )

Unidades Período Custom range Directly to
Métrico impérial Tanto
Diario Semana Mensual Anual
use both date-selectors for a custom range
previous Dia
With this date

WeatherUnderground graphs for this period ( click here )


Diario Resumen Martes 01 Diciembre 2020
Tiempo Temp. ( °C ) Dew pt. ( °C ) Viento ( km/h ) desde Ráfaga ( km/h ) Presión ( hPa ) Humid.( % ) Rainrate ( cm )
Alto10,8 8,5 18,0 NO ( 420/695 ) 18,0 1024,4 95 -
Media8,5 6,2 6,3 NO #61/111 7,6 1022,9 86 -
Baja6,4 3,8 -   2,0 1022,0 68 -
Diario Tabular details for Martes 01 Diciembre 2020
Tiempo Temp. ( °C ) Dew pt. ( °C ) Viento ( km/h ) desde Ráfaga ( km/h ) Presión ( hPa ) Humid.( % ) Rainrate ( cm )
00:04 8,4 7,8 5,0 North 6,0 1024,4 95 -
00:08 8,5 7,7 5,0 NNW 6,0 1024,4 95 -
00:14 8,5 7,6 6,0 NO 6,0 1024,4 94 -
00:19 8,7 7,9 5,0 NO 6,0 1024,4 95 -
00:24 8,7 7,9 5,0 NNW 6,0 1024,4 95 -
00:29 8,7 7,8 6,0 NO 8,0 1024,4 94 -
00:34 8,7 7,8 6,0 NO 8,0 1024,2 94 -
00:39 8,8 7,9 5,0 NNW 8,0 1024,1 94 -
00:44 8,8 7,8 6,0 NO 6,0 1024,0 93 -
00:49 8,7 7,6 6,0 NO 8,0 1024,1 93 -
00:54 8,6 7,6 6,0 NO 8,0 1024,0 93 -
00:59 8,5 7,3 5,0 NO 8,0 1024,0 93 -
01:04 8,7 7,6 6,0 NO 6,0 1023,8 93 -
01:09 8,9 7,8 6,0 NO 8,0 1023,7 92 -
01:14 8,8 7,4 8,0 NO 8,0 1023,8 92 -
01:19 8,8 7,8 8,0 NO 8,0 1023,7 92 -
01:23 8,9 7,8 8,0 NO 8,0 1023,7 92 -
01:29 8,9 7,8 6,0 NO 8,0 1023,7 91 -
01:34 8,7 7,3 6,0 NO 6,0 1023,7 91 -
01:39 8,6 7,2 6,0 NO 8,0 1023,7 91 -
01:44 8,4 7,2 5,0 NO 10,0 1023,5 92 -
01:49 8,3 7,2 6,0 NO 10,0 1023,7 92 -
01:54 8,2 7,0 6,0 NO 10,0 1023,7 92 -
01:58 8,1 7,0 6,0 NO 10,0 1023,7 93 -
02:04 8,9 7,7 11,0 West 11,0 1023,7 93 -
02:09 10,2 8,5 18,0 West 18,0 1023,7 92 -
02:14 10,3 8,4 15,0 West 18,0 1023,4 88 -
02:18 10,4 8,3 10,0 ENE 15,0 1023,7 87 -
02:24 9,6 7,7 11,0 NO 13,0 1023,7 89 -
02:28 9,3 7,5 6,0 NO 11,0 1023,5 89 -
02:33 9,1 7,4 8,0 NO 8,0 1023,4 90 -
02:38 9,2 7,5 8,0 West 8,0 1023,4 90 -
02:43 9,5 7,7 8,0 ENE 10,0 1023,5 89 -
02:49 9,5 7,6 6,0 NO 10,0 1023,4 88 -
02:54 9,4 7,6 8,0 NO 8,0 1023,4 88 -
02:59 9,6 7,6 13,0 ENE 13,0 1023,4 88 -
03:03 9,6 7,6 6,0 NO 6,0 1023,4 87 -
03:09 9,4 7,3 8,0 NO 8,0 1023,4 87 -
03:14 9,4 7,4 8,0 ENE 8,0 1023,4 87 -
03:19 9,9 7,6 6,0 West 8,0 1023,4 87 -
03:24 10,3 7,7 15,0 West 15,0 1023,4 85 -
03:29 10,7 7,7 11,0 ENE 15,0 1023,0 83 -
03:34 10,8 7,9 10,0 NO 10,0 1023,0 82 -
03:39 10,5 7,6 10,0 NO 13,0 1023,0 83 -
03:44 10,2 7,4 10,0 NO 10,0 1023,0 83 -
03:49 9,8 7,3 6,0 NNW 10,0 1023,0 84 -
03:54 9,6 7,1 3,0 North 10,0 1023,0 84 -
03:59 9,3 6,9 3,0 North 5,0 1023,0 85 -
04:04 9,1 6,8 3,0 North 5,0 1023,0 86 -
04:09 9,1 6,8 5,0 North 5,0 1022,8 86 -
04:14 9,0 6,6 2,0 NNW 3,0 1022,7 86 -
04:19 8,4 6,2 2,0 North 3,0 1022,7 87 -
04:23 8,2 6,3   calma 3,0 1022,7 88 -
04:28 8,3 6,4   calma 2,0 1022,7 88 -
04:33 8,2 6,3   calma 2,0 1022,7 88 -
04:38 8,3 6,4 3,0 North 3,0 1022,4 88 -
04:44 7,9 6,1 5,0 NNW 5,0 1022,4 89 -
04:49 7,8 6,1 3,0 North 5,0 1022,4 89 -
04:54 8,1 6,2 3,0 North 5,0 1022,4 89 -
04:59 8,4 6,4 3,0 NNW 3,0 1022,4 88 -
05:04 8,4 6,4 3,0 North 3,0 1022,4 87 -
05:09 8,7 6,6 5,0 NNW 5,0 1022,4 87 -
05:14 8,7 6,4   calma 5,0 1022,4 86 -
05:19 8,4 6,3 3,0 NE 3,0 1022,4 87 -
05:24 8,4 6,4 5,0 North 5,0 1022,4 87 -
05:29 8,1 6,1 6,0 NO 6,0 1022,4 88 -
05:33 8,1 6,1 8,0 NO 8,0 1022,4 88 -
05:39 8,0 6,1 6,0 NO 8,0 1022,4 87 -
05:44 7,9 5,9 6,0 NO 6,0 1022,4 87 -
05:49 7,6 5,7 8,0 NO 11,0 1022,4 88 -
05:54 7,6 5,6 6,0 NO 6,0 1022,4 87 -
05:59 7,4 5,4 5,0 NNW 6,0 1022,2 87 -
06:04 7,4 5,4 6,0 NO 6,0 1022,1 87 -
06:09 7,2 5,2 8,0 NO 8,0 1022,0 87 -
06:14 7,4 5,1 6,0 NNW 8,0 1022,1 86 -
06:19 7,2 4,9 5,0 NNW 8,0 1022,1 86 -
06:24 7,1 4,7   calma 3,0 1022,0 85 -
06:29 7,1 4,8 3,0 North 3,0 1022,0 85 -
06:33 7,0 4,6 5,0 North 5,0 1022,0 85 -
06:39 6,9 4,6 6,0 NO 6,0 1022,0 85 -
06:44 6,8 4,3 6,0 NNW 6,0 1022,0 84 -
06:49 6,8 4,3 6,0 NO 6,0 1022,0 84 -
06:54 6,9 4,2 8,0 NO 8,0 1022,0 83 -
06:59 6,9 4,0 8,0 NO 8,0 1022,0 82 -
07:04 6,7 4,0 6,0 NO 8,0 1022,0 84 -
07:09 6,4 3,9 10,0 NO 10,0 1022,0 84 -
07:13 6,4 3,9 10,0 NO 10,0 1022,0 84 -
07:19 6,6 3,9 10,0 NO 10,0 1022,0 83 -
07:23 6,4 3,8 6,0 NO 10,0 1022,0 84 -
07:29 7,1 4,2 6,0 NO 10,0 1022,1 82 -
07:34 7,2 4,1 8,0 NO 10,0 1022,1 81 -
07:39 7,4 4,2 6,0 NO 6,0 1022,0 80 -
07:44 7,4 4,2 8,0 NO 8,0 1022,0 80 -
07:48 7,4 4,1 6,0 NO 8,0 1022,0 80 -
07:54 7,8 4,1 5,0 NO 8,0 1022,0 79 -
07:59 7,8 4,1 8,0 NO 8,0 1022,0 79 -
08:04 7,5 4,1 6,0 NO 6,0 1022,0 79 -
08:09 7,4 4,0 10,0 NO 10,0 1022,0 80 -
08:14 7,4 4,1 8,0 NO 8,0 1022,4 80 -
08:19 7,8 4,0 11,0 North 11,0 1022,4 79 -
08:23 8,6 4,1 6,0 North 6,0 1022,4 74 -
08:29 9,6 4,2 11,0 North 11,0 1022,4 71 -
08:34 9,8 4,2 5,0 NO 5,0 1022,4 70 -
08:39 10,1 4,4 5,0 NO 6,0 1022,4 68 -
08:44 10,0 4,4 3,0 NO 6,0 1022,4 69 -
08:49 10,1 4,7 3,0 North 6,0 1022,4 70 -
08:54 10,1 4,9 2,0 NNE 5,0 1022,4 70 -
08:59 10,1 5,1 6,0 NO 6,0 1022,2 72 -
09:04 9,8 5,1 5,0 NNW 6,0 1022,4 74 -
09:09 9,5 5,2 5,0 NNE 6,0 1022,4 75 -
09:11 9,3 4,9 2,0 NNE 3,0 1022,4 74 -
Diario Resumen Martes 01 Diciembre 2020
Tiempo Temp. ( °C ) Dew pt. ( °C ) Viento ( km/h ) desde Ráfaga ( km/h ) Presión ( hPa ) Humid.( % ) Rainrate ( cm )
Alto10,8 8,5 18,0 NO ( 420/695 ) 18,0 1024,4 95 -
Media8,5 6,2 6,3 NO #61/111 7,6 1022,9 86 -
Baja6,4 3,8 -   2,0 1022,0 68 -
Diario Tabular details for Martes 01 Diciembre 2020
Tiempo Temp. ( °C ) Dew pt. ( °C ) Viento ( km/h ) desde Ráfaga ( km/h ) Presión ( hPa ) Humid.( % ) Rainrate ( cm )
00:04 8,4 7,8 5,0 North 6,0 1024,4 95 -
00:08 8,5 7,7 5,0 NNW 6,0 1024,4 95 -
00:14 8,5 7,6 6,0 NO 6,0 1024,4 94 -
00:19 8,7 7,9 5,0 NO 6,0 1024,4 95 -
00:24 8,7 7,9 5,0 NNW 6,0 1024,4 95 -
00:29 8,7 7,8 6,0 NO 8,0 1024,4 94 -
00:34 8,7 7,8 6,0 NO 8,0 1024,2 94 -
00:39 8,8 7,9 5,0 NNW 8,0 1024,1 94 -
00:44 8,8 7,8 6,0 NO 6,0 1024,0 93 -
00:49 8,7 7,6 6,0 NO 8,0 1024,1 93 -
00:54 8,6 7,6 6,0 NO 8,0 1024,0 93 -
00:59 8,5 7,3 5,0 NO 8,0 1024,0 93 -
01:04 8,7 7,6 6,0 NO 6,0 1023,8 93 -
01:09 8,9 7,8 6,0 NO 8,0 1023,7 92 -
01:14 8,8 7,4 8,0 NO 8,0 1023,8 92 -
01:19 8,8 7,8 8,0 NO 8,0 1023,7 92 -
01:23 8,9 7,8 8,0 NO 8,0 1023,7 92 -
01:29 8,9 7,8 6,0 NO 8,0 1023,7 91 -
01:34 8,7 7,3 6,0 NO 6,0 1023,7 91 -
01:39 8,6 7,2 6,0 NO 8,0 1023,7 91 -
01:44 8,4 7,2 5,0 NO 10,0 1023,5 92 -
01:49 8,3 7,2 6,0 NO 10,0 1023,7 92 -
01:54 8,2 7,0 6,0 NO 10,0 1023,7 92 -
01:58 8,1 7,0 6,0 NO 10,0 1023,7 93 -
02:04 8,9 7,7 11,0 West 11,0 1023,7 93 -
02:09 10,2 8,5 18,0 West 18,0 1023,7 92 -
02:14 10,3 8,4 15,0 West 18,0 1023,4 88 -
02:18 10,4 8,3 10,0 ENE 15,0 1023,7 87 -
02:24 9,6 7,7 11,0 NO 13,0 1023,7 89 -
02:28 9,3 7,5 6,0 NO 11,0 1023,5 89 -
02:33 9,1 7,4 8,0 NO 8,0 1023,4 90 -
02:38 9,2 7,5 8,0 West 8,0 1023,4 90 -
02:43 9,5 7,7 8,0 ENE 10,0 1023,5 89 -
02:49 9,5 7,6 6,0 NO 10,0 1023,4 88 -
02:54 9,4 7,6 8,0 NO 8,0 1023,4 88 -
02:59 9,6 7,6 13,0 ENE 13,0 1023,4 88 -
03:03 9,6 7,6 6,0 NO 6,0 1023,4 87 -
03:09 9,4 7,3 8,0 NO 8,0 1023,4 87 -
03:14 9,4 7,4 8,0 ENE 8,0 1023,4 87 -
03:19 9,9 7,6 6,0 West 8,0 1023,4 87 -
03:24 10,3 7,7 15,0 West 15,0 1023,4 85 -
03:29 10,7 7,7 11,0 ENE 15,0 1023,0 83 -
03:34 10,8 7,9 10,0 NO 10,0 1023,0 82 -
03:39 10,5 7,6 10,0 NO 13,0 1023,0 83 -
03:44 10,2 7,4 10,0 NO 10,0 1023,0 83 -
03:49 9,8 7,3 6,0 NNW 10,0 1023,0 84 -
03:54 9,6 7,1 3,0 North 10,0 1023,0 84 -
03:59 9,3 6,9 3,0 North 5,0 1023,0 85 -
04:04 9,1 6,8 3,0 North 5,0 1023,0 86 -
04:09 9,1 6,8 5,0 North 5,0 1022,8 86 -
04:14 9,0 6,6 2,0 NNW 3,0 1022,7 86 -
04:19 8,4 6,2 2,0 North 3,0 1022,7 87 -
04:23 8,2 6,3   calma 3,0 1022,7 88 -
04:28 8,3 6,4   calma 2,0 1022,7 88 -
04:33 8,2 6,3   calma 2,0 1022,7 88 -
04:38 8,3 6,4 3,0 North 3,0 1022,4 88 -
04:44 7,9 6,1 5,0 NNW 5,0 1022,4 89 -
04:49 7,8 6,1 3,0 North 5,0 1022,4 89 -
04:54 8,1 6,2 3,0 North 5,0 1022,4 89 -
04:59 8,4 6,4 3,0 NNW 3,0 1022,4 88 -
05:04 8,4 6,4 3,0 North 3,0 1022,4 87 -
05:09 8,7 6,6 5,0 NNW 5,0 1022,4 87 -
05:14 8,7 6,4   calma 5,0 1022,4 86 -
05:19 8,4 6,3 3,0 NE 3,0 1022,4 87 -
05:24 8,4 6,4 5,0 North 5,0 1022,4 87 -
05:29 8,1 6,1 6,0 NO 6,0 1022,4 88 -
05:33 8,1 6,1 8,0 NO 8,0 1022,4 88 -
05:39 8,0 6,1 6,0 NO 8,0 1022,4 87 -
05:44 7,9 5,9 6,0 NO 6,0 1022,4 87 -
05:49 7,6 5,7 8,0 NO 11,0 1022,4 88 -
05:54 7,6 5,6 6,0 NO 6,0 1022,4 87 -
05:59 7,4 5,4 5,0 NNW 6,0 1022,2 87 -
06:04 7,4 5,4 6,0 NO 6,0 1022,1 87 -
06:09 7,2 5,2 8,0 NO 8,0 1022,0 87 -
06:14 7,4 5,1 6,0 NNW 8,0 1022,1 86 -
06:19 7,2 4,9 5,0 NNW 8,0 1022,1 86 -
06:24 7,1 4,7   calma 3,0 1022,0 85 -
06:29 7,1 4,8 3,0 North 3,0 1022,0 85 -
06:33 7,0 4,6 5,0 North 5,0 1022,0 85 -
06:39 6,9 4,6 6,0 NO 6,0 1022,0 85 -
06:44 6,8 4,3 6,0 NNW 6,0 1022,0 84 -
06:49 6,8 4,3 6,0 NO 6,0 1022,0 84 -
06:54 6,9 4,2 8,0 NO 8,0 1022,0 83 -
06:59 6,9 4,0 8,0 NO 8,0 1022,0 82 -
07:04 6,7 4,0 6,0 NO 8,0 1022,0 84 -
07:09 6,4 3,9 10,0 NO 10,0 1022,0 84 -
07:13 6,4 3,9 10,0 NO 10,0 1022,0 84 -
07:19 6,6 3,9 10,0 NO 10,0 1022,0 83 -
07:23 6,4 3,8 6,0 NO 10,0 1022,0 84 -
07:29 7,1 4,2 6,0 NO 10,0 1022,1 82 -
07:34 7,2 4,1 8,0 NO 10,0 1022,1 81 -
07:39 7,4 4,2 6,0 NO 6,0 1022,0 80 -
07:44 7,4 4,2 8,0 NO 8,0 1022,0 80 -
07:48 7,4 4,1 6,0 NO 8,0 1022,0 80 -
07:54 7,8 4,1 5,0 NO 8,0 1022,0 79 -
07:59 7,8 4,1 8,0 NO 8,0 1022,0 79 -
08:04 7,5 4,1 6,0 NO 6,0 1022,0 79 -
08:09 7,4 4,0 10,0 NO 10,0 1022,0 80 -
08:14 7,4 4,1 8,0 NO 8,0 1022,4 80 -
08:19 7,8 4,0 11,0 North 11,0 1022,4 79 -
08:23 8,6 4,1 6,0 North 6,0 1022,4 74 -
08:29 9,6 4,2 11,0 North 11,0 1022,4 71 -
08:34 9,8 4,2 5,0 NO 5,0 1022,4 70 -
08:39 10,1 4,4 5,0 NO 6,0 1022,4 68 -
08:44 10,0 4,4 3,0 NO 6,0 1022,4 69 -
08:49 10,1 4,7 3,0 North 6,0 1022,4 70 -
08:54 10,1 4,9 2,0 NNE 5,0 1022,4 70 -
08:59 10,1 5,1 6,0 NO 6,0 1022,2 72 -
09:04 9,8 5,1 5,0 NNW 6,0 1022,4 74 -
09:09 9,5 5,2 5,0 NNE 6,0 1022,4 75 -
09:11 9,3 4,9 2,0 NNE 3,0 1022,4 74 -

Download your copy of this data-set  here

Our weather-data as stored at Weather Underground. Guión original por Jim McMurry. Adaptado para la plantilla por Leuven-Template.eu

Te das cuenta de información de tiempo también en:

UK Metoffice

WeatherCloud

Weather Underground

Xert, Pla de la Font

AWEKAS

WeatherlinkIP

Citizen Weather Observer Program (CWOP)

HAMweather, WeatherForYou, PWS Weather

Equipo usamos:

Weather-station
Davis Vantage VUE

Weather-program
Davis Weatherlink.Com

Weather-server
My Computer

Proveedor
Hostinger

Davis Vantage VUE

Davis Weatherlink.Com

My Computer

Hostinger